Time;durP1;ratioP1;P1;durP2;ratioP2;P2;SDS_P1;SDS_P2;PMS_P1;PMS_P2;Temp;Humidity;BMP_temperature;BMP_pressure;BME280_temperature;BME280_humidity;BME280_pressure;Samples;Min_cycle;Max_cycle;Signal;HPM_P1;HPM_P2
2022/08/10 00:00:33;;;;;;;;;;;;;;;18.00;65.24;99877.48;1712344;82;20451;-73
2022/08/10 00:03:00;;;;;;;;;;;;;;;17.97;65.29;99880.07;1712385;82;20110;-71
2022/08/10 00:05:26;;;;;;;;;;;;;;;17.94;65.28;99879.14;1712470;82;21576;-72
2022/08/10 00:07:53;;;;;;;;;;;;;;;17.88;65.39;99883.48;1727264;82;20114;-72
2022/08/10 00:10:20;;;;;;;;;;;;;;;17.83;65.58;99881.13;1712398;82;20438;-71
2022/08/10 00:12:48;;;;;;;;;;;;;;;17.77;65.75;99890.02;1712299;82;20145;-71
2022/08/10 00:15:15;;;;;;;;;;;;;;;17.75;65.83;99879.98;1711862;82;20447;-71
2022/08/10 00:17:42;;;;;;;;;;;;;;;17.74;65.93;99879.66;1711109;82;21978;-72
2022/08/10 00:20:09;;;;;;;;;;;;;;;17.71;65.87;99878.22;1712446;82;20098;-71
2022/08/10 00:22:35;;;;;;;;;;;;;;;17.68;65.96;99877.79;1712287;82;20117;-71
2022/08/10 00:25:02;;;;;;;;;;;;;;;17.63;66.11;99880.27;1712382;82;20384;-72
2022/08/10 00:27:28;;;;;;;;;;;;;;;17.61;66.30;99881.84;1716100;82;20121;-72
2022/08/10 00:29:55;;;;;;;;;;;;;;;17.57;66.40;99874.39;1711804;82;21182;-73
2022/08/10 00:32:21;;;;;;;;;;;;;;;17.54;66.53;99880.17;1712385;82;20095;-72
2022/08/10 00:34:47;;;;;;;;;;;;;;;17.51;66.52;99880.55;1712318;82;20072;-73
2022/08/10 00:37:14;;;;;;;;;;;;;;;17.49;66.69;99875.90;1711021;82;20155;-72
2022/08/10 00:39:40;;;;;;;;;;;;;;;17.47;66.86;99873.94;1712387;82;20417;-72
2022/08/10 00:42:07;;;;;;;;;;;;;;;17.46;67.00;99870.41;1712387;82;21148;-72
2022/08/10 00:44:36;;;;;;;;;;;;;;;17.42;67.11;99869.16;1712268;82;20119;-75
2022/08/10 00:47:03;;;;;;;;;;;;;;;17.40;67.24;99873.08;1710213;82;20138;-72
2022/08/10 00:49:30;;;;;;;;;;;;;;;17.35;67.41;99872.86;1712234;82;20115;-72
2022/08/10 00:51:56;;;;;;;;;;;;;;;17.28;67.61;99870.18;1685375;83;20136;-72
2022/08/10 00:54:22;;;;;;;;;;;;;;;17.25;67.76;99872.76;1712222;82;21126;-72
2022/08/10 00:56:48;;;;;;;;;;;;;;;17.22;67.91;99865.61;1711390;82;20083;-72
2022/08/10 00:59:14;;;;;;;;;;;;;;;17.19;67.94;99869.53;1712208;82;20095;-72
2022/08/10 01:01:41;;;;;;;;;;;;;;;17.14;68.08;99873.34;1712386;82;20461;-71
2022/08/10 01:04:07;;;;;;;;;;;;;;;17.10;68.18;99872.62;1712537;82;20083;-71
2022/08/10 01:07:02;;;;;;;;;;;;;;;17.07;68.35;99868.48;1710470;82;20133;-73
2022/08/10 01:09:55;;;;;;;;;;;;;;;17.03;68.27;99868.55;1712281;82;20099;-71
2022/08/10 01:12:27;;;;;;;;;;;;;;;16.97;68.24;99868.01;1712397;82;20083;-71
2022/08/10 01:15:02;;;;;;;;;;;;;;;16.90;68.32;99870.36;1712329;82;20095;-73
2022/08/10 01:17:42;;;;;;;;;;;;;;;16.83;68.35;99872.20;1710813;82;20108;-73
2022/08/10 01:20:24;;;;;;;;;;;;;;;16.77;68.40;99873.83;1711356;82;21140;-73
2022/08/10 01:23:00;;;;;;;;;;;;;;;16.74;68.60;99871.54;1712197;82;20084;-72
2022/08/10 01:25:47;;;;;;;;;;;;;;;16.71;68.71;99869.28;1712438;83;20115;-73
2022/08/10 01:28:30;;;;;;;;;;;;;;;16.67;68.90;99863.97;1710426;82;20475;-71
2022/08/10 01:30:58;;;;;;;;;;;;;;;16.61;68.71;99867.45;1677917;84;20453;-72
2022/08/10 01:33:28;;;;;;;;;;;;;;;16.51;68.49;99862.93;1689878;84;21152;-73
2022/08/10 01:36:11;;;;;;;;;;;;;;;16.40;68.46;99861.64;1667515;84;20230;-73
2022/08/10 01:38:39;;;;;;;;;;;;;;;16.28;68.48;99860.55;1723999;82;20087;-72
2022/08/10 01:41:11;;;;;;;;;;;;;;;16.17;68.78;99861.59;1721195;82;20128;-75
2022/08/10 01:43:42;;;;;;;;;;;;;;;16.06;69.14;99855.75;1721256;82;20087;-74
2022/08/10 01:46:10;;;;;;;;;;;;;;;16.00;69.38;99859.24;1726109;82;21110;-73
2022/08/10 01:48:39;;;;;;;;;;;;;;;15.94;69.55;99856.50;1720616;82;20103;-72
2022/08/10 01:51:23;;;;;;;;;;;;;;;15.88;69.70;99858.61;1721348;82;20428;-72
2022/08/10 01:54:08;;;;;;;;;;;;;;;15.81;69.86;99859.91;1721149;82;20095;-72
2022/08/10 01:56:45;;;;;;;;;;;;;;;15.78;70.17;99858.13;1720034;82;20098;-73
2022/08/10 01:59:28;;;;;;;;;;;;;;;15.73;70.64;99856.03;1695309;82;21777;-75
2022/08/10 02:01:58;;;;;;;;;;;;;;;15.72;70.89;99853.02;1721270;82;20087;-73
2022/08/10 02:04:24;;;;;;;;;;;;;;;15.65;70.83;99851.31;1721273;82;20162;-73
2022/08/10 02:06:52;;;;;;;;;;;;;;;15.59;71.18;99858.80;1719305;82;21373;-73
2022/08/10 02:09:27;;;;;;;;;;;;;;;15.57;71.39;99864.34;1720871;82;20150;-73
2022/08/10 02:11:54;;;;;;;;;;;;;;;15.54;71.62;99862.05;1721263;82;21086;-73
2022/08/10 02:14:21;;;;;;;;;;;;;;;15.51;71.74;99862.45;1722689;82;20114;-73
2022/08/10 02:16:49;;;;;;;;;;;;;;;15.48;71.59;99861.50;1719064;82;20095;-73
2022/08/10 02:19:18;;;;;;;;;;;;;;;15.42;71.42;99863.06;1720742;82;20174;-73
2022/08/10 02:21:45;;;;;;;;;;;;;;;15.35;71.47;99854.64;1721227;82;20099;-72
2022/08/10 02:24:12;;;;;;;;;;;;;;;15.31;71.62;99858.70;1721272;82;21127;-71
2022/08/10 02:26:40;;;;;;;;;;;;;;;15.22;71.51;99859.36;1719891;82;20112;-72
2022/08/10 02:29:08;;;;;;;;;;;;;;;15.12;71.43;99853.99;1721331;82;20087;-72
2022/08/10 02:31:34;;;;;;;;;;;;;;;15.01;71.65;99855.83;1715972;82;20497;-73
2022/08/10 02:34:01;;;;;;;;;;;;;;;14.95;72.03;99851.22;1692437;82;20340;-72
2022/08/10 02:36:30;;;;;;;;;;;;;;;14.96;72.29;99855.56;1711612;82;21764;-71
2022/08/10 02:38:57;;;;;;;;;;;;;;;15.01;72.73;99858.50;1712014;82;20084;-72
2022/08/10 02:41:33;;;;;;;;;;;;;;;15.07;73.12;99855.87;1712238;82;20159;-73
2022/08/10 02:44:05;;;;;;;;;;;;;;;15.15;73.56;99855.77;1682309;84;20413;-73
2022/08/10 02:46:47;;;;;;;;;;;;;;;15.21;73.76;99863.55;1658588;85;20150;-72
2022/08/10 02:49:17;;;;;;;;;;;;;;;15.24;73.82;99864.52;1659126;85;22064;-71
2022/08/10 02:51:46;;;;;;;;;;;;;;;15.23;73.55;99859.66;1695018;84;20150;-71
2022/08/10 02:54:19;;;;;;;;;;;;;;;15.25;73.99;99860.30;1695156;84;20148;-71
2022/08/10 02:56:52;;;;;;;;;;;;;;;15.31;74.41;99865.41;1694689;84;20488;-71
2022/08/10 02:59:28;;;;;;;;;;;;;;;15.37;74.84;99860.62;1658769;84;20126;-71
2022/08/10 03:01:56;;;;;;;;;;;;;;;15.44;75.15;99862.85;1683479;84;21090;-71
2022/08/10 03:04:38;;;;;;;;;;;;;;;15.51;75.11;99865.64;1682494;84;20100;-71
2022/08/10 03:07:06;;;;;;;;;;;;;;;15.58;75.14;99869.20;1684666;84;20117;-70
2022/08/10 03:09:34;;;;;;;;;;;;;;;15.58;74.60;99862.50;1685432;84;20108;-72
2022/08/10 03:12:00;;;;;;;;;;;;;;;15.59;74.53;99863.63;1683417;84;20087;-74
2022/08/10 03:14:26;;;;;;;;;;;;;;;15.66;74.74;99867.22;1712370;82;21281;-74
2022/08/10 03:16:53;;;;;;;;;;;;;;;15.73;74.57;99866.76;1710708;82;20138;-74
2022/08/10 03:19:19;;;;;;;;;;;;;;;15.80;74.32;99871.66;1722239;82;20151;-72
2022/08/10 03:21:48;;;;;;;;;;;;;;;15.88;73.98;99867.48;1721696;82;20119;-75
2022/08/10 03:24:19;;;;;;;;;;;;;;;15.95;73.60;99871.08;1722433;82;20103;-74
2022/08/10 03:26:44;;;;;;;;;;;;;;;16.07;73.19;99867.32;1721382;82;21153;-75
2022/08/10 03:29:10;;;;;;;;;;;;;;;16.22;72.83;99876.59;1721419;82;20167;-72
2022/08/10 03:31:36;;;;;;;;;;;;;;;16.40;72.78;99872.91;1726286;81;20243;-76
2022/08/10 03:34:02;;;;;;;;;;;;;;;16.57;72.36;99870.23;1734289;82;20122;-71
2022/08/10 03:36:30;;;;;;;;;;;;;;;16.75;72.13;99871.86;1706841;82;20444;-71
2022/08/10 03:38:56;;;;;;;;;;;;;;;16.95;71.34;99880.83;1732158;81;21145;-71
2022/08/10 03:41:29;;;;;;;;;;;;;;;17.19;70.63;99878.94;1734525;81;20114;-71
2022/08/10 03:43:55;;;;;;;;;;;;;;;17.44;69.63;99878.37;1733746;81;20424;-72
2022/08/10 03:46:23;;;;;;;;;;;;;;;17.69;68.45;99878.11;1734268;81;20091;-72
2022/08/10 03:48:51;;;;;;;;;;;;;;;17.96;67.86;99879.78;1733432;81;20082;-72
2022/08/10 03:51:20;;;;;;;;;;;;;;;18.27;67.28;99876.42;1734945;81;21157;-72
2022/08/10 03:53:47;;;;;;;;;;;;;;;18.57;66.57;99878.13;1734238;81;20083;-72
2022/08/10 03:56:13;;;;;;;;;;;;;;;18.87;65.69;99877.92;1734351;81;20436;-73
2022/08/10 03:58:39;;;;;;;;;;;;;;;19.20;64.91;99882.62;1733599;81;20775;-72
2022/08/10 04:01:06;;;;;;;;;;;;;;;19.52;63.70;99882.15;1733727;81;20139;-72
2022/08/10 04:03:32;;;;;;;;;;;;;;;19.80;62.62;99879.86;1734585;81;21142;-72
2022/08/10 04:05:58;;;;;;;;;;;;;;;20.14;61.45;99885.27;1734121;81;20094;-73
2022/08/10 04:08:25;;;;;;;;;;;;;;;20.46;60.28;99882.80;1733191;81;20126;-73
2022/08/10 04:10:52;;;;;;;;;;;;;;;20.76;59.32;99886.91;1707666;81;20082;-73
2022/08/10 04:13:18;;;;;;;;;;;;;;;21.10;58.57;99889.53;1734216;81;20142;-74
2022/08/10 04:15:44;;;;;;;;;;;;;;;21.43;57.71;99888.56;1733535;81;21093;-73
2022/08/10 04:18:10;;;;;;;;;;;;;;;21.74;57.08;99887.47;1740971;81;20094;-72
2022/08/10 04:20:39;;;;;;;;;;;;;;;22.06;56.47;99883.39;1734250;81;20141;-73
2022/08/10 04:23:11;;;;;;;;;;;;;;;22.42;55.43;99885.06;1734133;81;20479;-73
2022/08/10 04:25:38;;;;;;;;;;;;;;;22.76;54.43;99888.25;1734388;81;20118;-73
2022/08/10 04:28:06;;;;;;;;;;;;;;;23.11;53.62;99889.52;1735044;81;21141;-73
2022/08/10 04:30:34;;;;;;;;;;;;;;;23.45;52.65;99885.86;1734087;81;20504;-73
2022/08/10 04:33:02;;;;;;;;;;;;;;;23.73;51.30;99879.02;1724536;82;20087;-74
2022/08/10 04:35:28;;;;;;;;;;;;;;;23.95;50.88;99882.67;1722000;82;20442;-73
2022/08/10 04:37:55;;;;;;;;;;;;;;;24.35;49.87;99883.83;1721934;82;20098;-74
2022/08/10 04:40:22;;;;;;;;;;;;;;;24.76;48.92;99880.32;1722547;82;21133;-74
2022/08/10 04:42:48;;;;;;;;;;;;;;;25.19;47.94;99877.59;1722596;82;20086;-73
2022/08/10 04:45:14;;;;;;;;;;;;;;;25.60;46.70;99884.32;1722577;82;20138;-72
2022/08/10 04:47:41;;;;;;;;;;;;;;;25.88;45.79;99881.83;1721335;82;20123;-70
2022/08/10 04:50:07;;;;;;;;;;;;;;;26.16;45.01;99883.72;1722049;82;20483;-71
2022/08/10 04:52:34;;;;;;;;;;;;;;;26.39;44.36;99882.50;1722242;82;21156;-73
2022/08/10 04:55:00;;;;;;;;;;;;;;;26.62;43.74;99887.53;1722519;82;20118;-73
2022/08/10 04:57:26;;;;;;;;;;;;;;;26.85;43.19;99887.13;1722164;82;20098;-74
2022/08/10 04:59:53;;;;;;;;;;;;;;;27.11;42.81;99881.78;1722467;82;20099;-72
2022/08/10 05:02:19;;;;;;;;;;;;;;;27.42;42.05;99876.16;1722606;82;20106;-74
2022/08/10 05:04:45;;;;;;;;;;;;;;;27.76;41.22;99877.02;1722702;82;21045;-74
2022/08/10 05:07:13;;;;;;;;;;;;;;;27.98;40.79;99875.63;1720332;82;20099;-73
2022/08/10 05:09:40;;;;;;;;;;;;;;;28.33;40.17;99872.62;1721266;82;20437;-73
2022/08/10 05:12:06;;;;;;;;;;;;;;;28.54;39.18;99870.11;1722550;82;20096;-74
2022/08/10 05:14:33;;;;;;;;;;;;;;;28.58;39.19;99873.37;1723344;82;20095;-74
2022/08/10 05:16:59;;;;;;;;;;;;;;;28.82;38.82;99879.06;1722355;82;21133;-76
2022/08/10 05:19:25;;;;;;;;;;;;;;;29.05;38.60;99878.95;1722593;82;20119;-73
2022/08/10 05:21:51;;;;;;;;;;;;;;;29.26;37.89;99870.93;1717574;82;20172;-70
2022/08/10 05:24:18;;;;;;;;;;;;;;;29.38;37.98;99878.27;1720060;82;20187;-70
2022/08/10 05:26:44;;;;;;;;;;;;;;;29.77;37.58;99886.50;1730221;82;20464;-70
2022/08/10 05:29:11;;;;;;;;;;;;;;;30.19;36.69;99882.56;1706400;84;21122;-70
2022/08/10 05:31:37;;;;;;;;;;;;;;;30.49;36.13;99880.11;1713533;83;20176;-70
2022/08/10 05:34:03;;;;;;;;;;;;;;;30.88;35.57;99881.30;1701472;82;20142;-70
2022/08/10 05:36:29;;;;;;;;;;;;;;;31.27;34.88;99873.66;1714603;83;20170;-71
2022/08/10 05:38:55;;;;;;;;;;;;;;;31.54;34.16;99873.84;1737933;81;20098;-70
2022/08/10 05:41:25;;;;;;;;;;;;;;;31.86;33.79;99866.73;1694921;83;21135;-72
2022/08/10 05:43:51;;;;;;;;;;;;;;;32.19;33.18;99868.38;1744390;82;20137;-72
2022/08/10 05:46:19;;;;;;;;;;;;;;;32.52;32.45;99865.00;1719450;83;20176;-72
2022/08/10 05:48:45;;;;;;;;;;;;;;;32.66;32.35;99868.06;1698829;83;20167;-71
2022/08/10 05:51:11;;;;;;;;;;;;;;;32.84;31.80;99868.51;1697430;83;20173;-74
2022/08/10 05:53:37;;;;;;;;;;;;;;;32.92;31.78;99860.91;1695753;83;21123;-74
2022/08/10 05:56:05;;;;;;;;;;;;;;;33.14;31.41;99864.88;1692669;83;20531;-74
2022/08/10 05:58:32;;;;;;;;;;;;;;;33.42;30.92;99869.19;1708691;83;20129;-73
2022/08/10 06:00:59;;;;;;;;;;;;;;;33.65;30.53;99870.87;1708105;83;20300;-73
2022/08/10 06:03:28;;;;;;;;;;;;;;;33.73;30.34;99870.69;1667710;85;20157;-73
2022/08/10 06:05:56;;;;;;;;;;;;;;;33.96;30.42;99875.88;1708425;83;21084;-73
2022/08/10 06:08:24;;;;;;;;;;;;;;;34.42;29.60;99873.31;1697225;83;20118;-73
2022/08/10 06:10:52;;;;;;;;;;;;;;;34.62;28.79;99871.42;1694319;83;20125;-73
2022/08/10 06:16:06;;;;;;;;;;;;;;;34.68;28.48;99867.36;1693908;83;20189;-73
2022/08/10 06:18:33;;;;;;;;;;;;;;;34.41;28.67;99866.17;1695966;83;21759;-74
2022/08/10 06:21:00;;;;;;;;;;;;;;;34.48;28.92;99865.97;1702385;83;20200;-74
2022/08/10 06:23:27;;;;;;;;;;;;;;;34.73;28.60;99869.97;1681102;84;20500;-74
2022/08/10 06:25:54;;;;;;;;;;;;;;;34.79;28.32;99863.17;1694174;83;20438;-74
2022/08/10 06:28:20;;;;;;;;;;;;;;;34.76;28.30;99863.81;1700935;83;20192;-74
2022/08/10 06:30:46;;;;;;;;;;;;;;;35.13;28.27;99866.61;1717264;82;21564;-74
2022/08/10 06:33:13;;;;;;;;;;;;;;;35.46;27.20;99861.45;1715336;82;20103;-73
2022/08/10 06:35:39;;;;;;;;;;;;;;;35.28;27.27;99862.81;1720893;83;20120;-75
2022/08/10 06:38:06;;;;;;;;;;;;;;;35.16;27.74;99866.80;1720446;83;20108;-74
2022/08/10 06:40:34;;;;;;;;;;;;;;;35.30;27.40;99865.27;1693618;84;20141;-73
2022/08/10 06:43:02;;;;;;;;;;;;;;;35.33;27.50;99867.36;1712723;83;21143;-73
2022/08/10 06:45:30;;;;;;;;;;;;;;;35.58;27.02;99861.63;1718294;83;20088;-75
2022/08/10 06:48:06;;;;;;;;;;;;;;;35.71;27.12;99866.19;1708202;84;20090;-75
2022/08/10 06:50:38;;;;;;;;;;;;;;;35.95;26.87;99865.09;1724703;83;20083;-74
2022/08/10 06:53:08;;;;;;;;;;;;;;;36.32;26.28;99865.74;1701119;84;20206;-75
2022/08/10 06:55:34;;;;;;;;;;;;;;;36.74;26.19;99859.80;1701122;84;21647;-73
2022/08/10 06:58:01;;;;;;;;;;;;;;;37.51;25.41;99857.97;1690773;84;20100;-75
2022/08/10 07:00:28;;;;;;;;;;;;;;;38.11;24.53;99856.59;1677521;84;20424;-73
2022/08/10 07:02:56;;;;;;;;;;;;;;;38.55;24.13;99851.58;1699623;84;20110;-75
2022/08/10 07:05:25;;;;;;;;;;;;;;;38.87;23.24;99849.88;1689492;84;20130;-71
2022/08/10 07:07:54;;;;;;;;;;;;;;;38.72;23.56;99843.60;1690666;84;21180;-74
2022/08/10 07:10:21;;;;;;;;;;;;;;;39.04;23.20;99848.79;1689462;84;20091;-71
2022/08/10 07:12:49;;;;;;;;;;;;;;;39.29;22.71;99850.41;1699742;84;20070;-70
2022/08/10 07:15:17;;;;;;;;;;;;;;;39.27;22.28;99842.97;1692557;84;20087;-74
2022/08/10 07:17:44;;;;;;;;;;;;;;;39.13;22.44;99852.27;1698925;84;20098;-74
2022/08/10 07:20:16;;;;;;;;;;;;;;;38.96;22.45;99853.89;1699653;84;21248;-76
2022/08/10 07:22:44;;;;;;;;;;;;;;;38.81;22.59;99854.86;1699553;84;20118;-75
2022/08/10 07:25:11;;;;;;;;;;;;;;;39.01;22.66;99849.48;1689051;83;20099;-74
2022/08/10 07:27:38;;;;;;;;;;;;;;;39.40;22.14;99850.13;1687471;83;20111;-74
2022/08/10 07:30:06;;;;;;;;;;;;;;;39.53;21.98;99847.52;1672527;83;20119;-74
2022/08/10 07:32:33;;;;;;;;;;;;;;;39.71;21.71;99842.52;1687411;83;21235;-74
2022/08/10 07:35:00;;;;;;;;;;;;;;;39.88;21.38;99852.75;1687425;83;20405;-75
2022/08/10 07:37:28;;;;;;;;;;;;;;;39.53;21.23;99848.92;1695992;83;20180;-75
2022/08/10 07:39:55;;;;;;;;;;;;;;;39.25;22.01;99841.95;1687546;83;20146;-75
2022/08/10 07:42:22;;;;;;;;;;;;;;;39.57;21.94;99849.84;1687407;83;20099;-75
2022/08/10 07:44:49;;;;;;;;;;;;;;;40.08;21.21;99847.55;1703146;83;21291;-74
2022/08/10 07:47:22;;;;;;;;;;;;;;;40.56;20.59;99847.02;1691545;83;20084;-74
2022/08/10 07:49:48;;;;;;;;;;;;;;;40.81;20.21;99848.42;1687635;83;20099;-75
2022/08/10 07:52:15;;;;;;;;;;;;;;;41.11;19.98;99846.77;1687581;83;20147;-74
2022/08/10 07:54:44;;;;;;;;;;;;;;;41.37;19.49;99850.35;1687576;83;20168;-75
2022/08/10 07:57:20;;;;;;;;;;;;;;;41.33;19.53;99843.87;1687413;83;21239;-74
2022/08/10 07:59:49;;;;;;;;;;;;;;;41.23;19.32;99839.66;1687455;83;20421;-75
2022/08/10 08:02:28;;;;;;;;;;;;;;;40.87;19.57;99831.63;1688317;83;20177;-76
2022/08/10 08:04:55;;;;;;;;;;;;;;;40.79;20.05;99838.22;1670838;83;20179;-75
2022/08/10 08:07:22;;;;;;;;;;;;;;;41.14;19.63;99830.67;1687526;83;20075;-74
2022/08/10 08:09:48;;;;;;;;;;;;;;;40.79;19.40;99831.83;1687603;83;21163;-73
2022/08/10 08:12:15;;;;;;;;;;;;;;;40.10;20.20;99833.86;1687824;83;20127;-73
2022/08/10 08:14:42;;;;;;;;;;;;;;;40.35;20.12;99836.70;1687520;83;20446;-74
2022/08/10 08:17:08;;;;;;;;;;;;;;;40.41;20.08;99830.51;1687588;83;20122;-74
2022/08/10 08:19:36;;;;;;;;;;;;;;;40.72;19.83;99828.30;1687700;83;20110;-74
2022/08/10 08:22:03;;;;;;;;;;;;;;;41.12;19.17;99826.05;1687452;83;21315;-74
2022/08/10 08:24:29;;;;;;;;;;;;;;;40.73;19.41;99829.89;1687427;83;20084;-74
2022/08/10 08:26:56;;;;;;;;;;;;;;;40.83;19.57;99834.91;1687514;83;20492;-74
2022/08/10 08:29:23;;;;;;;;;;;;;;;40.82;19.45;99829.70;1687404;83;20088;-74
2022/08/10 08:31:49;;;;;;;;;;;;;;;40.33;19.87;99832.89;1687468;83;20088;-74
2022/08/10 08:34:16;;;;;;;;;;;;;;;40.47;19.93;99832.44;1687461;83;20914;-75
2022/08/10 08:36:42;;;;;;;;;;;;;;;41.17;19.51;99820.18;1687423;83;20170;-74
2022/08/10 08:39:11;;;;;;;;;;;;;;;41.60;18.63;99819.70;1687560;83;20120;-74
2022/08/10 08:41:58;;;;;;;;;;;;;;;41.00;18.85;99826.77;1687356;83;20600;-74
2022/08/10 08:44:58;;;;;;;;;;;;;;;40.04;19.41;99822.98;1687549;83;20100;-75
2022/08/10 08:47:43;;;;;;;;;;;;;;;38.58;20.84;99820.32;1607329;88;21237;-74
2022/08/10 08:50:47;;;;;;;;;;;;;;;39.03;20.97;99814.62;1604623;88;20538;-75
2022/08/10 08:53:17;;;;;;;;;;;;;;;40.19;20.06;99810.22;1659438;83;20473;-76
2022/08/10 08:56:05;;;;;;;;;;;;;;;41.15;18.94;99802.19;1687018;83;20182;-74
2022/08/10 08:59:02;;;;;;;;;;;;;;;40.67;19.06;99800.08;1687479;83;20104;-75
2022/08/10 09:01:42;;;;;;;;;;;;;;;39.73;19.97;99790.88;1687364;83;21583;-74
2022/08/10 09:04:30;;;;;;;;;;;;;;;38.41;20.60;99808.03;1686646;83;20446;-74
2022/08/10 09:07:07;;;;;;;;;;;;;;;36.53;22.31;99805.50;1686972;83;20112;-74
2022/08/10 09:09:53;;;;;;;;;;;;;;;35.07;24.33;99812.05;1687419;83;20690;-74
2022/08/10 09:12:38;;;;;;;;;;;;;;;34.01;25.73;99815.59;1687490;83;20084;-74
2022/08/10 09:15:11;;;;;;;;;;;;;;;33.14;26.54;99812.52;1687540;83;21155;-74
2022/08/10 09:18:01;;;;;;;;;;;;;;;33.64;26.48;99812.69;1683618;84;37479;-74
2022/08/10 09:20:55;;;;;;;;;;;;;;;34.06;25.74;99810.79;1694569;84;20106;-74
2022/08/10 09:23:46;;;;;;;;;;;;;;;33.35;25.66;99812.27;1694971;84;20119;-75
2022/08/10 09:26:23;;;;;;;;;;;;;;;32.21;26.80;99813.84;1695776;84;20213;-74
2022/08/10 09:28:51;;;;;;;;;;;;;;;31.23;28.49;99814.92;1695172;84;21146;-75
2022/08/10 09:31:21;;;;;;;;;;;;;;;30.44;29.94;99812.38;1695009;84;20146;-74
2022/08/10 09:34:04;;;;;;;;;;;;;;;29.95;31.12;99817.27;1695569;82;20114;-75
2022/08/10 09:36:56;;;;;;;;;;;;;;;29.68;32.09;99807.32;1689929;84;20139;-75
2022/08/10 09:39:29;;;;;;;;;;;;;;;29.59;32.05;99804.37;1701597;83;20451;-74
2022/08/10 09:42:15;;;;;;;;;;;;;;;29.56;32.16;99802.23;1720914;82;21142;-74
2022/08/10 09:44:45;;;;;;;;;;;;;;;29.51;32.46;99799.53;1721267;82;20150;-74
2022/08/10 09:47:19;;;;;;;;;;;;;;;29.49;32.73;99792.12;1725820;82;20126;-75
2022/08/10 09:49:54;;;;;;;;;;;;;;;29.53;32.30;99787.72;1721193;82;20350;-74
2022/08/10 09:52:24;;;;;;;;;;;;;;;29.47;32.40;99786.12;1720643;82;20095;-75
2022/08/10 09:55:10;;;;;;;;;;;;;;;29.43;32.93;99784.24;1721265;82;21860;-74
2022/08/10 09:57:52;;;;;;;;;;;;;;;29.48;33.05;99785.57;1721139;82;20111;-73
2022/08/10 10:00:20;;;;;;;;;;;;;;;29.61;32.85;99779.43;1669857;83;20087;-74
2022/08/10 10:03:07;;;;;;;;;;;;;;;29.81;32.83;99779.27;1721106;82;20118;-75
2022/08/10 10:05:45;;;;;;;;;;;;;;;29.88;32.53;99780.56;1721223;82;20122;-73
2022/08/10 10:08:24;;;;;;;;;;;;;;;29.73;32.24;99776.57;1721133;82;21160;-74
2022/08/10 10:11:07;;;;;;;;;;;;;;;29.56;32.31;99773.45;1721172;82;20409;-74
2022/08/10 10:13:58;;;;;;;;;;;;;;;29.49;32.35;99768.03;1721152;83;20098;-73
2022/08/10 10:17:02;;;;;;;;;;;;;;;29.52;32.17;99766.06;1722595;82;20477;-73
2022/08/10 10:19:56;;;;;;;;;;;;;;;29.66;31.92;99764.30;1724477;82;20114;-74
2022/08/10 10:22:56;;;;;;;;;;;;;;;29.83;31.57;99764.71;1720343;82;21841;-74
2022/08/10 10:25:36;;;;;;;;;;;;;;;29.89;31.40;99767.13;1721155;82;20095;-73
2022/08/10 10:28:28;;;;;;;;;;;;;;;29.80;31.04;99769.42;1721181;82;20098;-74
2022/08/10 10:31:01;;;;;;;;;;;;;;;29.59;30.46;99772.05;1703439;82;20264;-73
2022/08/10 10:33:55;;;;;;;;;;;;;;;29.29;30.57;99766.26;1719567;82;20144;-74
2022/08/10 10:36:21;;;;;;;;;;;;;;;29.15;31.14;99767.42;1712249;82;21134;-75
2022/08/10 10:38:48;;;;;;;;;;;;;;;29.09;31.36;99761.73;1682136;84;20152;-74
2022/08/10 10:41:38;;;;;;;;;;;;;;;29.00;31.65;99768.89;1659104;85;20988;-75
2022/08/10 10:44:19;;;;;;;;;;;;;;;28.87;32.20;99776.37;1658306;85;20455;-73
2022/08/10 10:46:52;;;;;;;;;;;;;;;28.63;32.61;99775.39;1658626;85;20161;-74
2022/08/10 10:49:41;;;;;;;;;;;;;;;28.54;33.10;99772.41;1676092;84;23474;-73
2022/08/10 10:52:31;;;;;;;;;;;;;;;28.49;33.02;99772.98;1695011;84;20143;-73
2022/08/10 10:55:10;;;;;;;;;;;;;;;28.35;33.26;99774.66;1668182;84;20142;-74
2022/08/10 10:57:40;;;;;;;;;;;;;;;28.24;33.87;99773.88;1695032;84;20119;-73
2022/08/10 11:00:08;;;;;;;;;;;;;;;28.29;34.20;99777.17;1695114;84;20147;-74
2022/08/10 11:02:38;;;;;;;;;;;;;;;28.28;34.33;99775.52;1694927;84;21961;-73
2022/08/10 11:05:14;;;;;;;;;;;;;;;28.28;34.20;99777.71;1694630;84;20154;-74
2022/08/10 11:07:50;;;;;;;;;;;;;;;28.22;33.93;99782.09;1647587;84;20456;-73
2022/08/10 11:10:20;;;;;;;;;;;;;;;28.11;34.75;99778.56;1695077;84;20197;-74
2022/08/10 11:13:13;;;;;;;;;;;;;;;27.95;35.43;99772.86;1695177;84;20119;-73
2022/08/10 11:15:49;;;;;;;;;;;;;;;27.83;36.04;99773.67;1695794;84;21144;-73
2022/08/10 11:18:25;;;;;;;;;;;;;;;27.64;36.77;99766.59;1703592;84;20178;-74
2022/08/10 11:21:24;;;;;;;;;;;;;;;27.48;37.23;99771.24;1695790;84;20079;-73
2022/08/10 11:24:06;;;;;;;;;;;;;;;27.34;37.85;99776.14;1698441;82;20084;-73
2022/08/10 11:26:45;;;;;;;;;;;;;;;27.20;38.16;99781.30;1680792;84;20104;-75
2022/08/10 11:29:21;;;;;;;;;;;;;;;27.00;37.91;99774.45;1659174;85;21280;-73
2022/08/10 11:31:51;;;;;;;;;;;;;;;26.88;37.51;99769.23;1659123;85;20440;-74
2022/08/10 11:34:33;;;;;;;;;;;;;;;26.80;37.33;99767.02;1659120;86;20102;-74
2022/08/10 11:37:15;;;;;;;;;;;;;;;26.76;37.40;99768.63;1695156;83;20087;-74
2022/08/10 11:39:54;;;;;;;;;;;;;;;26.70;37.68;99766.97;1695309;83;20185;-74
2022/08/10 11:42:30;;;;;;;;;;;;;;;26.71;37.72;99773.25;1715726;83;21739;-73
2022/08/10 11:45:02;;;;;;;;;;;;;;;26.73;38.06;99760.98;1695162;83;20468;-75
2022/08/10 11:47:49;;;;;;;;;;;;;;;26.73;38.04;99760.98;1694839;83;20123;-74
2022/08/10 11:50:30;;;;;;;;;;;;;;;26.64;37.92;99757.69;1707053;83;20120;-74
2022/08/10 11:53:08;;;;;;;;;;;;;;;26.61;38.34;99750.86;1695025;82;20102;-74
2022/08/10 11:55:35;;;;;;;;;;;;;;;26.62;38.88;99747.02;1664049;83;21242;-74
2022/08/10 12:00:58;;;;;;;;;;;;;;;26.50;39.51;99745.62;1712465;82;20101;-73
2022/08/10 12:03:24;;;;;;;;;;;;;;;26.39;39.21;99743.40;1712386;82;20173;-74
2022/08/10 12:05:51;;;;;;;;;;;;;;;26.43;38.74;99749.98;1712467;82;20142;-74
2022/08/10 12:08:18;;;;;;;;;;;;;;;26.54;38.26;99744.02;1712320;82;21815;-75
2022/08/10 12:10:45;;;;;;;;;;;;;;;26.55;38.09;99745.64;1712257;82;20150;-74
2022/08/10 12:13:16;;;;;;;;;;;;;;;26.49;37.67;99752.98;1713186;82;20085;-75
2022/08/10 12:15:53;;;;;;;;;;;;;;;26.35;36.71;99755.94;1712377;82;20125;-75
2022/08/10 12:18:23;;;;;;;;;;;;;;;26.22;35.71;99756.42;1711507;82;20153;-74
2022/08/10 12:20:52;;;;;;;;;;;;;;;26.10;35.27;99751.67;1712440;82;21136;-73
2022/08/10 12:23:23;;;;;;;;;;;;;;;26.01;35.22;99754.11;1712163;82;20094;-74
2022/08/10 12:26:08;;;;;;;;;;;;;;;26.03;35.67;99753.83;1712325;82;20121;-74
2022/08/10 12:28:37;;;;;;;;;;;;;;;25.94;35.68;99759.52;1712280;82;20098;-75
2022/08/10 12:31:05;;;;;;;;;;;;;;;25.92;36.06;99765.22;1712092;82;20101;-75
2022/08/10 12:33:42;;;;;;;;;;;;;;;25.99;36.43;99754.09;1712215;82;21812;-74
2022/08/10 12:36:13;;;;;;;;;;;;;;;26.03;36.69;99755.19;1721026;82;20083;-73
2022/08/10 12:38:58;;;;;;;;;;;;;;;26.10;36.92;99750.31;1721367;82;20091;-74
2022/08/10 12:41:28;;;;;;;;;;;;;;;26.19;36.76;99741.95;1721359;82;20131;-74
2022/08/10 12:44:17;;;;;;;;;;;;;;;26.28;36.98;99745.27;1721287;82;20083;-74
2022/08/10 12:46:56;;;;;;;;;;;;;;;26.33;36.38;99745.28;1671101;85;21349;-73
2022/08/10 12:49:35;;;;;;;;;;;;;;;26.28;35.97;99739.80;1690998;82;20115;-75
2022/08/10 12:52:13;;;;;;;;;;;;;;;26.25;36.04;99737.61;1721295;82;20421;-75
2022/08/10 12:54:40;;;;;;;;;;;;;;;26.25;36.19;99734.87;1721197;82;20481;-74
2022/08/10 12:57:12;;;;;;;;;;;;;;;26.29;36.31;99731.92;1721378;82;20432;-74
2022/08/10 12:59:41;;;;;;;;;;;;;;;26.33;36.31;99726.19;1731101;82;21144;-74
2022/08/10 13:02:07;;;;;;;;;;;;;;;26.39;36.62;99721.58;1721229;82;20433;-74
2022/08/10 13:04:35;;;;;;;;;;;;;;;26.41;36.43;99717.23;1721197;82;20083;-74
2022/08/10 13:07:03;;;;;;;;;;;;;;;26.38;36.48;99713.68;1721242;82;20147;-75
2022/08/10 13:09:30;;;;;;;;;;;;;;;26.34;37.00;99712.02;1721260;82;20118;-75
2022/08/10 13:12:14;;;;;;;;;;;;;;;26.32;37.37;99718.29;1721206;82;21159;-74
2022/08/10 13:14:49;;;;;;;;;;;;;;;26.32;37.50;99715.56;1721130;82;20167;-75
2022/08/10 13:17:27;;;;;;;;;;;;;;;26.38;36.94;99720.50;1728598;82;20209;-75